sensor_id;sensor_type;location;lat;lon;timestamp;P1;durP1;ratioP1;P2;durP2;ratioP2
938;SDS011;456;53.584;9.968;2022-12-24T00:02:16;2.83;;;2.13;;
938;SDS011;456;53.584;9.968;2022-12-24T00:04:42;2.77;;;2.47;;
938;SDS011;456;53.584;9.968;2022-12-24T00:07:07;2.17;;;1.80;;
938;SDS011;456;53.584;9.968;2022-12-24T00:09:33;2.30;;;2.10;;
938;SDS011;456;53.584;9.968;2022-12-24T00:11:58;2.27;;;2.07;;
938;SDS011;456;53.584;9.968;2022-12-24T00:14:24;2.53;;;2.10;;
938;SDS011;456;53.584;9.968;2022-12-24T00:16:50;2.57;;;2.37;;
938;SDS011;456;53.584;9.968;2022-12-24T00:19:15;2.10;;;1.90;;
938;SDS011;456;53.584;9.968;2022-12-24T00:21:41;2.17;;;2.00;;
938;SDS011;456;53.584;9.968;2022-12-24T00:24:07;2.43;;;2.23;;
938;SDS011;456;53.584;9.968;2022-12-24T00:26:32;2.00;;;1.87;;
938;SDS011;456;53.584;9.968;2022-12-24T00:28:58;1.87;;;1.67;;
938;SDS011;456;53.584;9.968;2022-12-24T00:31:24;2.30;;;1.93;;
938;SDS011;456;53.584;9.968;2022-12-24T00:33:49;1.57;;;1.47;;
938;SDS011;456;53.584;9.968;2022-12-24T00:36:16;1.93;;;1.83;;
938;SDS011;456;53.584;9.968;2022-12-24T00:38:42;2.47;;;2.00;;
938;SDS011;456;53.584;9.968;2022-12-24T00:41:08;1.97;;;1.87;;
938;SDS011;456;53.584;9.968;2022-12-24T00:43:52;1.77;;;1.50;;
938;SDS011;456;53.584;9.968;2022-12-24T00:46:21;1.80;;;1.60;;
938;SDS011;456;53.584;9.968;2022-12-24T00:48:47;2.10;;;1.60;;
938;SDS011;456;53.584;9.968;2022-12-24T00:51:13;1.70;;;1.60;;
938;SDS011;456;53.584;9.968;2022-12-24T00:53:39;1.60;;;1.50;;
938;SDS011;456;53.584;9.968;2022-12-24T00:56:05;2.17;;;1.60;;
938;SDS011;456;53.584;9.968;2022-12-24T00:58:31;1.50;;;1.40;;
938;SDS011;456;53.584;9.968;2022-12-24T01:00:56;1.50;;;1.40;;
938;SDS011;456;53.584;9.968;2022-12-24T01:03:22;1.50;;;1.40;;
938;SDS011;456;53.584;9.968;2022-12-24T01:05:58;1.43;;;1.33;;
938;SDS011;456;53.584;9.968;2022-12-24T01:08:23;1.60;;;1.50;;
938;SDS011;456;53.584;9.968;2022-12-24T01:10:49;1.83;;;1.73;;
938;SDS011;456;53.584;9.968;2022-12-24T01:13:14;1.90;;;1.70;;
938;SDS011;456;53.584;9.968;2022-12-24T01:15:40;2.17;;;1.80;;
938;SDS011;456;53.584;9.968;2022-12-24T01:18:05;1.93;;;1.77;;
938;SDS011;456;53.584;9.968;2022-12-24T01:20:31;1.73;;;1.57;;
938;SDS011;456;53.584;9.968;2022-12-24T01:22:57;1.70;;;1.50;;
938;SDS011;456;53.584;9.968;2022-12-24T01:25:22;2.00;;;1.77;;
938;SDS011;456;53.584;9.968;2022-12-24T01:27:48;1.70;;;1.40;;
938;SDS011;456;53.584;9.968;2022-12-24T01:30:13;1.40;;;1.30;;
938;SDS011;456;53.584;9.968;2022-12-24T01:32:39;2.23;;;1.93;;
938;SDS011;456;53.584;9.968;2022-12-24T01:35:05;1.63;;;1.53;;
938;SDS011;456;53.584;9.968;2022-12-24T01:37:31;1.70;;;1.60;;
938;SDS011;456;53.584;9.968;2022-12-24T01:39:57;1.97;;;1.87;;
938;SDS011;456;53.584;9.968;2022-12-24T01:42:43;1.40;;;1.30;;
938;SDS011;456;53.584;9.968;2022-12-24T01:48:15;1.83;;;1.73;;
938;SDS011;456;53.584;9.968;2022-12-24T01:51:01;2.00;;;1.80;;
938;SDS011;456;53.584;9.968;2022-12-24T01:53:30;2.63;;;1.90;;
938;SDS011;456;53.584;9.968;2022-12-24T01:55:58;1.80;;;1.70;;
938;SDS011;456;53.584;9.968;2022-12-24T01:58:24;1.77;;;1.67;;
938;SDS011;456;53.584;9.968;2022-12-24T02:00:50;1.90;;;1.80;;
938;SDS011;456;53.584;9.968;2022-12-24T02:03:16;1.30;;;1.20;;
938;SDS011;456;53.584;9.968;2022-12-24T02:08:15;1.60;;;1.50;;
938;SDS011;456;53.584;9.968;2022-12-24T02:10:43;2.43;;;1.77;;
938;SDS011;456;53.584;9.968;2022-12-24T02:13:09;2.30;;;1.50;;
938;SDS011;456;53.584;9.968;2022-12-24T02:15:38;1.97;;;1.80;;
938;SDS011;456;53.584;9.968;2022-12-24T02:18:33;2.20;;;1.97;;
938;SDS011;456;53.584;9.968;2022-12-24T02:27:16;1.40;;;1.30;;
938;SDS011;456;53.584;9.968;2022-12-24T02:35:43;1.37;;;1.27;;
938;SDS011;456;53.584;9.968;2022-12-24T02:40:51;1.67;;;1.57;;
938;SDS011;456;53.584;9.968;2022-12-24T02:43:24;1.60;;;1.50;;
938;SDS011;456;53.584;9.968;2022-12-24T02:45:54;1.77;;;1.67;;
938;SDS011;456;53.584;9.968;2022-12-24T02:48:23;1.70;;;1.60;;
938;SDS011;456;53.584;9.968;2022-12-24T02:51:04;1.93;;;1.57;;
938;SDS011;456;53.584;9.968;2022-12-24T02:53:31;1.20;;;1.10;;
938;SDS011;456;53.584;9.968;2022-12-24T02:56:02;1.80;;;1.70;;
938;SDS011;456;53.584;9.968;2022-12-24T02:58:42;1.57;;;1.47;;
938;SDS011;456;53.584;9.968;2022-12-24T03:01:15;1.50;;;1.40;;
938;SDS011;456;53.584;9.968;2022-12-24T03:08:58;1.37;;;1.27;;
938;SDS011;456;53.584;9.968;2022-12-24T03:11:47;1.97;;;1.77;;
938;SDS011;456;53.584;9.968;2022-12-24T03:14:21;1.83;;;1.73;;
938;SDS011;456;53.584;9.968;2022-12-24T03:16:47;1.63;;;1.53;;
938;SDS011;456;53.584;9.968;2022-12-24T03:19:14;2.13;;;1.37;;
938;SDS011;456;53.584;9.968;2022-12-24T03:21:40;1.50;;;1.40;;
938;SDS011;456;53.584;9.968;2022-12-24T03:24:06;1.50;;;1.40;;
938;SDS011;456;53.584;9.968;2022-12-24T03:26:34;1.50;;;1.40;;
938;SDS011;456;53.584;9.968;2022-12-24T03:29:03;1.97;;;1.70;;
938;SDS011;456;53.584;9.968;2022-12-24T03:31:43;1.60;;;1.50;;
938;SDS011;456;53.584;9.968;2022-12-24T03:34:11;1.73;;;1.60;;
938;SDS011;456;53.584;9.968;2022-12-24T03:36:37;3.23;;;2.07;;
938;SDS011;456;53.584;9.968;2022-12-24T03:39:03;1.30;;;1.17;;
938;SDS011;456;53.584;9.968;2022-12-24T03:41:30;1.90;;;1.80;;
938;SDS011;456;53.584;9.968;2022-12-24T03:43:55;2.10;;;1.37;;
938;SDS011;456;53.584;9.968;2022-12-24T03:46:21;1.67;;;1.30;;
938;SDS011;456;53.584;9.968;2022-12-24T03:48:47;1.60;;;1.50;;
938;SDS011;456;53.584;9.968;2022-12-24T03:51:15;1.57;;;1.47;;
938;SDS011;456;53.584;9.968;2022-12-24T03:53:51;1.60;;;1.50;;
938;SDS011;456;53.584;9.968;2022-12-24T03:56:17;1.50;;;1.40;;
938;SDS011;456;53.584;9.968;2022-12-24T03:58:43;1.60;;;1.50;;
938;SDS011;456;53.584;9.968;2022-12-24T04:01:08;1.73;;;1.50;;
938;SDS011;456;53.584;9.968;2022-12-24T04:03:34;1.50;;;1.40;;
938;SDS011;456;53.584;9.968;2022-12-24T04:06:04;1.40;;;1.30;;
938;SDS011;456;53.584;9.968;2022-12-24T04:08:31;1.73;;;1.63;;
938;SDS011;456;53.584;9.968;2022-12-24T04:10:57;1.73;;;1.63;;
938;SDS011;456;53.584;9.968;2022-12-24T04:13:23;1.30;;;1.20;;
938;SDS011;456;53.584;9.968;2022-12-24T04:15:57;1.70;;;1.60;;
938;SDS011;456;53.584;9.968;2022-12-24T04:18:28;1.40;;;1.30;;
938;SDS011;456;53.584;9.968;2022-12-24T04:20:54;1.57;;;1.47;;
938;SDS011;456;53.584;9.968;2022-12-24T04:23:19;1.60;;;1.50;;
938;SDS011;456;53.584;9.968;2022-12-24T04:25:45;1.47;;;1.37;;
938;SDS011;456;53.584;9.968;2022-12-24T04:28:11;1.67;;;1.33;;
938;SDS011;456;53.584;9.968;2022-12-24T04:30:38;1.73;;;1.57;;
938;SDS011;456;53.584;9.968;2022-12-24T04:33:04;1.80;;;1.70;;
938;SDS011;456;53.584;9.968;2022-12-24T04:35:30;1.57;;;1.47;;
938;SDS011;456;53.584;9.968;2022-12-24T04:37:56;1.67;;;1.57;;
938;SDS011;456;53.584;9.968;2022-12-24T04:40:22;1.67;;;1.57;;
938;SDS011;456;53.584;9.968;2022-12-24T04:42:48;1.70;;;1.60;;
938;SDS011;456;53.584;9.968;2022-12-24T04:45:14;1.43;;;1.33;;
938;SDS011;456;53.584;9.968;2022-12-24T04:47:40;1.60;;;1.37;;
938;SDS011;456;53.584;9.968;2022-12-24T04:50:06;2.10;;;1.90;;
938;SDS011;456;53.584;9.968;2022-12-24T04:52:32;1.60;;;1.40;;
938;SDS011;456;53.584;9.968;2022-12-24T04:54:58;1.83;;;1.70;;
938;SDS011;456;53.584;9.968;2022-12-24T04:57:24;1.90;;;1.40;;
938;SDS011;456;53.584;9.968;2022-12-24T04:59:50;2.17;;;1.80;;
938;SDS011;456;53.584;9.968;2022-12-24T05:02:15;2.10;;;1.20;;
938;SDS011;456;53.584;9.968;2022-12-24T05:04:41;1.93;;;1.53;;
938;SDS011;456;53.584;9.968;2022-12-24T05:07:06;1.40;;;1.30;;
938;SDS011;456;53.584;9.968;2022-12-24T05:09:32;1.67;;;1.57;;
938;SDS011;456;53.584;9.968;2022-12-24T05:11:57;2.10;;;1.90;;
938;SDS011;456;53.584;9.968;2022-12-24T05:14:23;2.27;;;1.80;;
938;SDS011;456;53.584;9.968;2022-12-24T05:16:49;1.63;;;1.53;;
938;SDS011;456;53.584;9.968;2022-12-24T05:19:14;1.73;;;1.57;;
938;SDS011;456;53.584;9.968;2022-12-24T05:21:40;2.77;;;1.80;;
938;SDS011;456;53.584;9.968;2022-12-24T05:24:05;1.93;;;1.77;;
938;SDS011;456;53.584;9.968;2022-12-24T05:26:51;2.10;;;1.90;;
938;SDS011;456;53.584;9.968;2022-12-24T05:29:19;1.80;;;1.70;;
938;SDS011;456;53.584;9.968;2022-12-24T05:31:45;1.60;;;1.50;;
938;SDS011;456;53.584;9.968;2022-12-24T05:34:11;1.87;;;1.70;;
938;SDS011;456;53.584;9.968;2022-12-24T05:36:38;2.00;;;1.70;;
938;SDS011;456;53.584;9.968;2022-12-24T05:39:04;1.67;;;1.57;;
938;SDS011;456;53.584;9.968;2022-12-24T05:41:30;1.50;;;1.40;;
938;SDS011;456;53.584;9.968;2022-12-24T05:43:56;2.07;;;1.80;;
938;SDS011;456;53.584;9.968;2022-12-24T05:46:22;1.40;;;1.30;;
938;SDS011;456;53.584;9.968;2022-12-24T05:48:49;1.70;;;1.60;;
938;SDS011;456;53.584;9.968;2022-12-24T05:51:16;1.80;;;1.43;;
938;SDS011;456;53.584;9.968;2022-12-24T05:53:44;1.53;;;1.43;;
938;SDS011;456;53.584;9.968;2022-12-24T05:56:11;1.70;;;1.60;;
938;SDS011;456;53.584;9.968;2022-12-24T05:58:40;1.43;;;1.33;;
938;SDS011;456;53.584;9.968;2022-12-24T06:01:06;1.60;;;1.50;;
938;SDS011;456;53.584;9.968;2022-12-24T06:03:33;1.60;;;1.50;;
938;SDS011;456;53.584;9.968;2022-12-24T06:08:26;1.50;;;1.37;;
938;SDS011;456;53.584;9.968;2022-12-24T06:10:53;1.93;;;1.73;;
938;SDS011;456;53.584;9.968;2022-12-24T06:13:23;1.93;;;1.60;;
938;SDS011;456;53.584;9.968;2022-12-24T06:15:50;1.70;;;1.60;;
938;SDS011;456;53.584;9.968;2022-12-24T06:18:18;2.33;;;1.60;;
938;SDS011;456;53.584;9.968;2022-12-24T06:20:44;1.70;;;1.40;;
938;SDS011;456;53.584;9.968;2022-12-24T06:23:09;1.70;;;1.60;;
938;SDS011;456;53.584;9.968;2022-12-24T06:25:35;1.80;;;1.30;;
938;SDS011;456;53.584;9.968;2022-12-24T06:28:00;1.57;;;1.47;;
938;SDS011;456;53.584;9.968;2022-12-24T06:30:26;1.50;;;1.40;;
938;SDS011;456;53.584;9.968;2022-12-24T06:32:52;1.43;;;1.33;;
938;SDS011;456;53.584;9.968;2022-12-24T06:35:17;1.83;;;1.70;;
938;SDS011;456;53.584;9.968;2022-12-24T06:37:43;1.30;;;1.20;;
938;SDS011;456;53.584;9.968;2022-12-24T06:40:08;1.93;;;1.47;;
938;SDS011;456;53.584;9.968;2022-12-24T06:42:34;1.77;;;1.60;;
938;SDS011;456;53.584;9.968;2022-12-24T06:45:00;1.97;;;1.70;;
938;SDS011;456;53.584;9.968;2022-12-24T06:47:25;1.60;;;1.50;;
938;SDS011;456;53.584;9.968;2022-12-24T06:49:51;1.40;;;1.30;;
938;SDS011;456;53.584;9.968;2022-12-24T06:52:16;1.63;;;1.50;;
938;SDS011;456;53.584;9.968;2022-12-24T06:54:42;1.50;;;1.40;;
938;SDS011;456;53.584;9.968;2022-12-24T06:57:07;1.60;;;1.50;;
938;SDS011;456;53.584;9.968;2022-12-24T06:59:33;1.43;;;1.33;;
938;SDS011;456;53.584;9.968;2022-12-24T07:01:59;1.40;;;1.30;;
938;SDS011;456;53.584;9.968;2022-12-24T07:04:24;1.90;;;1.67;;
938;SDS011;456;53.584;9.968;2022-12-24T07:06:50;1.80;;;1.60;;
938;SDS011;456;53.584;9.968;2022-12-24T07:09:15;1.63;;;1.40;;
938;SDS011;456;53.584;9.968;2022-12-24T07:11:41;1.50;;;1.40;;
938;SDS011;456;53.584;9.968;2022-12-24T07:14:07;1.77;;;1.53;;
938;SDS011;456;53.584;9.968;2022-12-24T07:16:33;1.97;;;1.77;;
938;SDS011;456;53.584;9.968;2022-12-24T07:18:58;1.50;;;1.37;;
938;SDS011;456;53.584;9.968;2022-12-24T07:21:24;1.47;;;1.17;;
938;SDS011;456;53.584;9.968;2022-12-24T07:23:49;1.70;;;1.60;;
938;SDS011;456;53.584;9.968;2022-12-24T07:26:15;2.77;;;1.67;;
938;SDS011;456;53.584;9.968;2022-12-24T07:28:41;1.57;;;1.43;;
938;SDS011;456;53.584;9.968;2022-12-24T07:31:06;1.73;;;1.63;;
938;SDS011;456;53.584;9.968;2022-12-24T07:33:32;2.33;;;1.60;;
938;SDS011;456;53.584;9.968;2022-12-24T07:36:01;1.30;;;1.20;;
938;SDS011;456;53.584;9.968;2022-12-24T07:38:31;1.50;;;1.37;;
938;SDS011;456;53.584;9.968;2022-12-24T07:40:57;1.53;;;1.43;;
938;SDS011;456;53.584;9.968;2022-12-24T07:43:23;1.87;;;1.50;;
938;SDS011;456;53.584;9.968;2022-12-24T07:45:53;1.20;;;1.10;;
938;SDS011;456;53.584;9.968;2022-12-24T07:48:20;1.53;;;1.43;;
938;SDS011;456;53.584;9.968;2022-12-24T07:50:47;1.60;;;1.23;;
938;SDS011;456;53.584;9.968;2022-12-24T07:53:14;1.80;;;1.50;;
938;SDS011;456;53.584;9.968;2022-12-24T07:55:39;1.00;;;0.90;;
938;SDS011;456;53.584;9.968;2022-12-24T07:58:05;1.20;;;1.10;;
938;SDS011;456;53.584;9.968;2022-12-24T08:00:30;1.13;;;1.00;;
938;SDS011;456;53.584;9.968;2022-12-24T08:02:56;0.93;;;0.83;;
938;SDS011;456;53.584;9.968;2022-12-24T08:05:24;1.70;;;1.60;;
938;SDS011;456;53.584;9.968;2022-12-24T08:07:50;1.20;;;1.10;;
938;SDS011;456;53.584;9.968;2022-12-24T08:10:16;1.27;;;1.17;;
938;SDS011;456;53.584;9.968;2022-12-24T08:12:42;1.20;;;1.10;;
938;SDS011;456;53.584;9.968;2022-12-24T08:15:11;1.20;;;1.00;;
938;SDS011;456;53.584;9.968;2022-12-24T08:17:36;2.83;;;0.90;;
938;SDS011;456;53.584;9.968;2022-12-24T08:20:02;1.43;;;1.33;;
938;SDS011;456;53.584;9.968;2022-12-24T08:22:28;1.50;;;1.40;;
938;SDS011;456;53.584;9.968;2022-12-24T08:24:54;1.30;;;1.20;;
938;SDS011;456;53.584;9.968;2022-12-24T08:27:19;0.90;;;0.90;;
938;SDS011;456;53.584;9.968;2022-12-24T08:29:45;1.20;;;1.00;;
938;SDS011;456;53.584;9.968;2022-12-24T08:32:11;1.30;;;1.20;;
938;SDS011;456;53.584;9.968;2022-12-24T08:34:36;1.07;;;0.97;;
938;SDS011;456;53.584;9.968;2022-12-24T08:37:02;1.30;;;1.20;;
938;SDS011;456;53.584;9.968;2022-12-24T08:39:27;1.60;;;1.03;;
938;SDS011;456;53.584;9.968;2022-12-24T08:41:53;1.10;;;1.00;;
938;SDS011;456;53.584;9.968;2022-12-24T08:44:18;1.13;;;1.03;;
938;SDS011;456;53.584;9.968;2022-12-24T08:46:44;2.20;;;0.83;;
938;SDS011;456;53.584;9.968;2022-12-24T08:49:10;1.27;;;0.93;;
938;SDS011;456;53.584;9.968;2022-12-24T08:51:36;1.60;;;0.90;;
938;SDS011;456;53.584;9.968;2022-12-24T08:54:01;0.80;;;0.80;;
938;SDS011;456;53.584;9.968;2022-12-24T08:56:27;3.03;;;1.00;;
938;SDS011;456;53.584;9.968;2022-12-24T08:58:52;1.40;;;1.30;;
938;SDS011;456;53.584;9.968;2022-12-24T09:01:18;1.33;;;1.10;;
938;SDS011;456;53.584;9.968;2022-12-24T09:03:45;1.20;;;1.10;;
938;SDS011;456;53.584;9.968;2022-12-24T09:06:11;1.67;;;1.57;;
938;SDS011;456;53.584;9.968;2022-12-24T09:08:37;1.70;;;1.60;;
938;SDS011;456;53.584;9.968;2022-12-24T09:11:11;1.60;;;1.20;;
938;SDS011;456;53.584;9.968;2022-12-24T09:13:38;2.90;;;1.70;;
938;SDS011;456;53.584;9.968;2022-12-24T09:16:04;2.00;;;1.70;;
938;SDS011;456;53.584;9.968;2022-12-24T09:18:30;2.30;;;1.67;;
938;SDS011;456;53.584;9.968;2022-12-24T09:21:03;4.20;;;1.63;;
938;SDS011;456;53.584;9.968;2022-12-24T09:23:31;3.07;;;1.97;;
938;SDS011;456;53.584;9.968;2022-12-24T09:26:03;5.00;;;2.40;;
938;SDS011;456;53.584;9.968;2022-12-24T09:28:32;3.30;;;2.43;;
938;SDS011;456;53.584;9.968;2022-12-24T09:31:00;2.73;;;2.23;;
938;SDS011;456;53.584;9.968;2022-12-24T09:33:31;3.40;;;2.60;;
938;SDS011;456;53.584;9.968;2022-12-24T09:35:58;4.80;;;2.17;;
938;SDS011;456;53.584;9.968;2022-12-24T09:38:24;3.50;;;2.73;;
938;SDS011;456;53.584;9.968;2022-12-24T09:40:50;2.73;;;2.40;;
938;SDS011;456;53.584;9.968;2022-12-24T09:43:18;3.33;;;2.97;;
938;SDS011;456;53.584;9.968;2022-12-24T09:46:08;3.20;;;2.80;;
938;SDS011;456;53.584;9.968;2022-12-24T09:48:42;2.73;;;2.47;;
938;SDS011;456;53.584;9.968;2022-12-24T09:54:07;4.17;;;2.70;;
938;SDS011;456;53.584;9.968;2022-12-24T09:56:40;3.83;;;2.83;;
938;SDS011;456;53.584;9.968;2022-12-24T09:59:16;3.00;;;2.80;;
938;SDS011;456;53.584;9.968;2022-12-24T10:01:49;3.33;;;2.70;;
938;SDS011;456;53.584;9.968;2022-12-24T10:04:18;3.27;;;2.53;;
938;SDS011;456;53.584;9.968;2022-12-24T10:12:06;3.80;;;3.50;;
938;SDS011;456;53.584;9.968;2022-12-24T10:15:25;4.17;;;3.50;;
938;SDS011;456;53.584;9.968;2022-12-24T10:25:24;4.00;;;3.57;;
938;SDS011;456;53.584;9.968;2022-12-24T10:27:57;4.60;;;3.80;;
938;SDS011;456;53.584;9.968;2022-12-24T10:30:24;3.97;;;3.57;;
938;SDS011;456;53.584;9.968;2022-12-24T10:32:51;3.70;;;3.40;;
938;SDS011;456;53.584;9.968;2022-12-24T10:35:22;4.20;;;3.60;;
938;SDS011;456;53.584;9.968;2022-12-24T10:37:48;4.27;;;3.20;;
938;SDS011;456;53.584;9.968;2022-12-24T10:40:29;3.90;;;3.60;;
938;SDS011;456;53.584;9.968;2022-12-24T10:42:59;3.80;;;3.50;;
938;SDS011;456;53.584;9.968;2022-12-24T10:45:35;3.90;;;3.50;;
938;SDS011;456;53.584;9.968;2022-12-24T10:48:04;3.30;;;3.00;;
938;SDS011;456;53.584;9.968;2022-12-24T10:50:35;4.83;;;3.60;;
938;SDS011;456;53.584;9.968;2022-12-24T10:53:13;4.30;;;3.40;;
938;SDS011;456;53.584;9.968;2022-12-24T10:55:51;7.13;;;3.53;;
938;SDS011;456;53.584;9.968;2022-12-24T10:58:27;8.27;;;4.27;;
938;SDS011;456;53.584;9.968;2022-12-24T11:00:53;5.47;;;4.27;;
938;SDS011;456;53.584;9.968;2022-12-24T11:05:58;6.10;;;4.30;;
938;SDS011;456;53.584;9.968;2022-12-24T11:08:26;5.47;;;4.03;;
938;SDS011;456;53.584;9.968;2022-12-24T11:16:05;9.60;;;4.93;;
938;SDS011;456;53.584;9.968;2022-12-24T11:18:44;6.30;;;5.30;;
938;SDS011;456;53.584;9.968;2022-12-24T11:21:17;9.80;;;5.30;;
938;SDS011;456;53.584;9.968;2022-12-24T11:26:52;6.30;;;5.03;;
938;SDS011;456;53.584;9.968;2022-12-24T11:29:22;5.67;;;3.97;;
938;SDS011;456;53.584;9.968;2022-12-24T11:31:49;7.57;;;4.83;;
938;SDS011;456;53.584;9.968;2022-12-24T11:34:28;7.50;;;4.73;;
938;SDS011;456;53.584;9.968;2022-12-24T11:37:09;7.90;;;5.53;;
938;SDS011;456;53.584;9.968;2022-12-24T11:39:48;10.13;;;5.57;;
938;SDS011;456;53.584;9.968;2022-12-24T11:44:50;10.40;;;6.37;;
938;SDS011;456;53.584;9.968;2022-12-24T11:47:18;17.30;;;6.77;;
938;SDS011;456;53.584;9.968;2022-12-24T11:50:18;16.00;;;7.40;;
938;SDS011;456;53.584;9.968;2022-12-24T11:52:49;19.47;;;7.87;;
938;SDS011;456;53.584;9.968;2022-12-24T11:58:15;15.83;;;7.80;;
938;SDS011;456;53.584;9.968;2022-12-24T12:00:47;17.40;;;7.80;;
938;SDS011;456;53.584;9.968;2022-12-24T12:03:33;14.13;;;6.80;;
938;SDS011;456;53.584;9.968;2022-12-24T12:06:09;17.47;;;6.60;;
938;SDS011;456;53.584;9.968;2022-12-24T12:08:44;15.07;;;6.77;;
938;SDS011;456;53.584;9.968;2022-12-24T12:11:11;11.23;;;6.77;;
938;SDS011;456;53.584;9.968;2022-12-24T12:13:38;14.47;;;7.17;;
938;SDS011;456;53.584;9.968;2022-12-24T12:18:46;13.33;;;6.00;;
938;SDS011;456;53.584;9.968;2022-12-24T12:21:31;9.20;;;5.13;;
938;SDS011;456;53.584;9.968;2022-12-24T12:24:05;11.57;;;6.80;;
938;SDS011;456;53.584;9.968;2022-12-24T12:26:59;10.80;;;5.43;;
938;SDS011;456;53.584;9.968;2022-12-24T12:30:04;8.57;;;4.80;;
938;SDS011;456;53.584;9.968;2022-12-24T12:32:40;12.43;;;5.07;;
938;SDS011;456;53.584;9.968;2022-12-24T12:35:30;8.63;;;5.10;;
938;SDS011;456;53.584;9.968;2022-12-24T12:38:01;8.20;;;4.60;;
938;SDS011;456;53.584;9.968;2022-12-24T12:46:19;10.90;;;5.20;;
938;SDS011;456;53.584;9.968;2022-12-24T12:54:48;8.87;;;4.17;;
938;SDS011;456;53.584;9.968;2022-12-24T12:57:16;10.50;;;5.07;;
938;SDS011;456;53.584;9.968;2022-12-24T12:59:49;9.90;;;5.17;;
938;SDS011;456;53.584;9.968;2022-12-24T13:02:40;8.23;;;4.50;;
938;SDS011;456;53.584;9.968;2022-12-24T13:05:52;6.80;;;4.17;;
938;SDS011;456;53.584;9.968;2022-12-24T13:14:06;9.13;;;4.83;;
938;SDS011;456;53.584;9.968;2022-12-24T13:19:46;8.07;;;5.07;;
938;SDS011;456;53.584;9.968;2022-12-24T13:22:24;6.30;;;4.17;;
938;SDS011;456;53.584;9.968;2022-12-24T13:24:51;8.03;;;5.00;;
938;SDS011;456;53.584;9.968;2022-12-24T13:27:31;6.40;;;4.40;;
938;SDS011;456;53.584;9.968;2022-12-24T13:30:30;8.70;;;4.97;;
938;SDS011;456;53.584;9.968;2022-12-24T13:36:01;7.63;;;4.63;;
938;SDS011;456;53.584;9.968;2022-12-24T13:38:30;8.73;;;4.73;;
938;SDS011;456;53.584;9.968;2022-12-24T13:49:34;7.00;;;4.40;;
938;SDS011;456;53.584;9.968;2022-12-24T13:54:34;6.23;;;4.13;;
938;SDS011;456;53.584;9.968;2022-12-24T13:57:54;5.80;;;3.60;;
938;SDS011;456;53.584;9.968;2022-12-24T14:05:27;5.50;;;4.23;;
938;SDS011;456;53.584;9.968;2022-12-24T14:08:01;7.13;;;3.63;;
938;SDS011;456;53.584;9.968;2022-12-24T14:10:39;7.10;;;4.00;;
938;SDS011;456;53.584;9.968;2022-12-24T14:16:08;5.77;;;3.47;;
938;SDS011;456;53.584;9.968;2022-12-24T14:18:41;6.03;;;3.90;;
938;SDS011;456;53.584;9.968;2022-12-24T14:21:19;6.47;;;3.80;;
938;SDS011;456;53.584;9.968;2022-12-24T14:23:54;5.83;;;4.07;;
938;SDS011;456;53.584;9.968;2022-12-24T14:26:27;6.77;;;3.70;;
938;SDS011;456;53.584;9.968;2022-12-24T14:29:01;7.53;;;4.17;;
938;SDS011;456;53.584;9.968;2022-12-24T14:31:48;6.40;;;3.70;;
938;SDS011;456;53.584;9.968;2022-12-24T14:34:18;5.93;;;3.60;;
938;SDS011;456;53.584;9.968;2022-12-24T14:36:44;7.30;;;3.93;;
938;SDS011;456;53.584;9.968;2022-12-24T14:39:22;4.97;;;3.67;;
938;SDS011;456;53.584;9.968;2022-12-24T14:44:57;7.40;;;4.13;;
938;SDS011;456;53.584;9.968;2022-12-24T14:47:37;6.30;;;3.67;;
938;SDS011;456;53.584;9.968;2022-12-24T14:50:33;6.70;;;3.60;;
938;SDS011;456;53.584;9.968;2022-12-24T14:55:54;5.60;;;3.80;;
938;SDS011;456;53.584;9.968;2022-12-24T14:58:27;5.07;;;3.90;;
938;SDS011;456;53.584;9.968;2022-12-24T15:01:15;4.80;;;3.57;;
938;SDS011;456;53.584;9.968;2022-12-24T15:06:38;6.47;;;3.50;;
938;SDS011;456;53.584;9.968;2022-12-24T15:09:21;5.30;;;3.90;;
938;SDS011;456;53.584;9.968;2022-12-24T15:11:54;5.10;;;3.40;;
938;SDS011;456;53.584;9.968;2022-12-24T15:14:27;4.40;;;3.70;;
938;SDS011;456;53.584;9.968;2022-12-24T15:16:58;4.87;;;3.30;;
938;SDS011;456;53.584;9.968;2022-12-24T15:19:28;10.47;;;3.93;;
938;SDS011;456;53.584;9.968;2022-12-24T15:22:01;5.10;;;3.80;;
938;SDS011;456;53.584;9.968;2022-12-24T15:24:36;7.87;;;4.10;;
938;SDS011;456;53.584;9.968;2022-12-24T15:27:15;6.93;;;4.20;;
938;SDS011;456;53.584;9.968;2022-12-24T15:29:44;7.70;;;4.00;;
938;SDS011;456;53.584;9.968;2022-12-24T15:32:13;5.23;;;3.33;;
938;SDS011;456;53.584;9.968;2022-12-24T15:34:41;6.00;;;3.90;;
938;SDS011;456;53.584;9.968;2022-12-24T15:39:34;5.87;;;3.13;;
938;SDS011;456;53.584;9.968;2022-12-24T15:42:01;6.53;;;3.97;;
938;SDS011;456;53.584;9.968;2022-12-24T15:44:39;8.40;;;3.60;;
938;SDS011;456;53.584;9.968;2022-12-24T15:47:12;6.50;;;3.97;;
938;SDS011;456;53.584;9.968;2022-12-24T15:49:51;6.90;;;3.73;;
938;SDS011;456;53.584;9.968;2022-12-24T15:52:18;9.50;;;5.00;;
938;SDS011;456;53.584;9.968;2022-12-24T15:54:48;13.13;;;5.07;;
938;SDS011;456;53.584;9.968;2022-12-24T15:59:54;8.87;;;4.57;;
938;SDS011;456;53.584;9.968;2022-12-24T16:02:34;14.73;;;4.83;;
938;SDS011;456;53.584;9.968;2022-12-24T16:08:00;7.83;;;4.53;;
938;SDS011;456;53.584;9.968;2022-12-24T16:13:28;8.70;;;4.03;;
938;SDS011;456;53.584;9.968;2022-12-24T16:16:11;6.00;;;4.27;;
938;SDS011;456;53.584;9.968;2022-12-24T16:18:44;6.27;;;4.33;;
938;SDS011;456;53.584;9.968;2022-12-24T16:21:22;26.87;;;24.00;;
938;SDS011;456;53.584;9.968;2022-12-24T16:24:01;25.27;;;22.43;;
938;SDS011;456;53.584;9.968;2022-12-24T16:26:37;25.43;;;22.93;;
938;SDS011;456;53.584;9.968;2022-12-24T16:29:04;22.03;;;19.57;;
938;SDS011;456;53.584;9.968;2022-12-24T16:31:36;21.90;;;19.13;;
938;SDS011;456;53.584;9.968;2022-12-24T16:34:13;19.27;;;17.27;;
938;SDS011;456;53.584;9.968;2022-12-24T16:36:39;18.67;;;16.20;;
938;SDS011;456;53.584;9.968;2022-12-24T16:39:09;18.67;;;14.77;;
938;SDS011;456;53.584;9.968;2022-12-24T16:41:51;15.90;;;14.30;;
938;SDS011;456;53.584;9.968;2022-12-24T16:44:37;14.03;;;12.63;;
938;SDS011;456;53.584;9.968;2022-12-24T16:47:03;13.03;;;11.80;;
938;SDS011;456;53.584;9.968;2022-12-24T16:49:31;12.83;;;11.40;;
938;SDS011;456;53.584;9.968;2022-12-24T16:51:56;12.23;;;11.03;;
938;SDS011;456;53.584;9.968;2022-12-24T16:54:22;10.40;;;9.23;;
938;SDS011;456;53.584;9.968;2022-12-24T16:56:47;10.00;;;9.07;;
938;SDS011;456;53.584;9.968;2022-12-24T16:59:17;10.23;;;8.17;;
938;SDS011;456;53.584;9.968;2022-12-24T17:01:45;9.33;;;8.27;;
938;SDS011;456;53.584;9.968;2022-12-24T17:04:12;9.53;;;8.10;;
938;SDS011;456;53.584;9.968;2022-12-24T17:06:38;10.43;;;7.80;;
938;SDS011;456;53.584;9.968;2022-12-24T17:09:04;10.50;;;7.00;;
938;SDS011;456;53.584;9.968;2022-12-24T17:11:30;9.27;;;7.53;;
938;SDS011;456;53.584;9.968;2022-12-24T17:13:56;9.53;;;6.73;;
938;SDS011;456;53.584;9.968;2022-12-24T17:16:21;9.60;;;6.77;;
938;SDS011;456;53.584;9.968;2022-12-24T17:18:47;8.33;;;5.93;;
938;SDS011;456;53.584;9.968;2022-12-24T17:21:14;6.47;;;5.87;;
938;SDS011;456;53.584;9.968;2022-12-24T17:23:41;7.93;;;5.33;;
938;SDS011;456;53.584;9.968;2022-12-24T17:26:07;7.67;;;5.37;;
938;SDS011;456;53.584;9.968;2022-12-24T17:28:34;10.93;;;5.33;;
938;SDS011;456;53.584;9.968;2022-12-24T17:31:04;7.13;;;4.80;;
938;SDS011;456;53.584;9.968;2022-12-24T17:33:31;7.73;;;4.97;;
938;SDS011;456;53.584;9.968;2022-12-24T17:35:56;5.30;;;4.43;;
938;SDS011;456;53.584;9.968;2022-12-24T17:38:22;5.30;;;4.80;;
938;SDS011;456;53.584;9.968;2022-12-24T17:40:48;5.83;;;4.70;;
938;SDS011;456;53.584;9.968;2022-12-24T17:43:13;5.73;;;3.90;;
938;SDS011;456;53.584;9.968;2022-12-24T17:45:39;7.83;;;4.40;;
938;SDS011;456;53.584;9.968;2022-12-24T17:48:06;7.47;;;4.07;;
938;SDS011;456;53.584;9.968;2022-12-24T17:50:31;4.40;;;3.50;;
938;SDS011;456;53.584;9.968;2022-12-24T17:52:57;6.50;;;4.23;;
938;SDS011;456;53.584;9.968;2022-12-24T17:55:23;8.23;;;3.80;;
938;SDS011;456;53.584;9.968;2022-12-24T17:57:48;4.20;;;3.60;;
938;SDS011;456;53.584;9.968;2022-12-24T18:00:14;6.57;;;3.90;;
938;SDS011;456;53.584;9.968;2022-12-24T18:02:40;4.90;;;3.30;;
938;SDS011;456;53.584;9.968;2022-12-24T18:05:06;7.30;;;4.23;;